Time;durP1;ratioP1;P1;durP2;ratioP2;P2;SDS_P1;SDS_P2;PMS_P1;PMS_P2;Temp;Humidity;BMP_temperature;BMP_pressure;BME280_temperature;BME280_humidity;BME280_pressure;Samples;Min_cycle;Max_cycle;Signal;HPM_P1;HPM_P2
2021/11/14 00:00:14;;;;;;;13.38;7.82;;;12.40;85.30;;;;;;5054566;28;20147;-64
2021/11/14 00:02:39;;;;;;;14.02;8.00;;;12.40;85.30;;;;;;5054326;28;20112;-64
2021/11/14 00:05:06;;;;;;;14.85;7.63;;;12.40;85.30;;;;;;5053093;28;20096;-64
2021/11/14 00:07:33;;;;;;;16.40;8.20;;;12.40;85.40;;;;;;5055238;28;20036;-64
2021/11/14 00:09:59;;;;;;;17.00;8.30;;;12.40;85.40;;;;;;5059928;28;20033;-64
2021/11/14 00:12:25;;;;;;;13.85;8.55;;;12.40;85.40;;;;;;5057299;28;20099;-64
2021/11/14 00:14:51;;;;;;;14.02;8.35;;;12.40;85.40;;;;;;5052041;28;20499;-64
2021/11/14 00:17:17;;;;;;;16.48;8.43;;;12.40;85.40;;;;;;5051319;28;20451;-64
2021/11/14 00:19:43;;;;;;;16.88;8.93;;;12.40;85.50;;;;;;5048968;28;20051;-64
2021/11/14 00:22:09;;;;;;;15.48;9.10;;;12.30;85.60;;;;;;5039317;28;20063;-65
2021/11/14 00:24:34;;;;;;;15.40;8.70;;;12.30;85.50;;;;;;5046711;28;20060;-64
2021/11/14 00:27:00;;;;;;;15.98;8.98;;;12.30;85.60;;;;;;5050270;28;20037;-64
2021/11/14 00:29:26;;;;;;;17.20;8.93;;;12.30;85.60;;;;;;5052176;28;20052;-64
2021/11/14 00:31:52;;;;;;;17.27;9.07;;;12.30;85.80;;;;;;5048197;28;20044;-64
2021/11/14 00:34:20;;;;;;;17.42;8.80;;;12.30;85.80;;;;;;5062878;28;20013;-64
2021/11/14 00:36:47;;;;;;;15.57;8.48;;;12.30;85.90;;;;;;5045012;28;20488;-64
2021/11/14 00:39:16;;;;;;;15.18;8.65;;;12.30;85.90;;;;;;5055699;28;20036;-64
2021/11/14 00:41:43;;;;;;;16.17;8.50;;;12.30;85.90;;;;;;5064971;28;20025;-64
2021/11/14 00:44:09;;;;;;;14.60;8.63;;;12.30;85.90;;;;;;5044500;28;20052;-64
2021/11/14 00:46:35;;;;;;;12.95;8.48;;;12.30;85.90;;;;;;5047102;28;20064;-64
2021/11/14 00:49:01;;;;;;;13.13;8.18;;;12.30;85.80;;;;;;5051171;28;20503;-64
2021/11/14 00:51:30;;;;;;;13.25;8.32;;;12.30;85.80;;;;;;5056482;28;20044;-64
2021/11/14 00:53:58;;;;;;;16.70;9.27;;;12.20;85.80;;;;;;5049423;28;20459;-64
2021/11/14 00:56:24;;;;;;;14.98;8.93;;;12.30;86.00;;;;;;5036159;28;20400;-64
2021/11/14 00:58:50;;;;;;;14.50;8.65;;;12.30;85.90;;;;;;5053181;28;20127;-64
2021/11/14 01:01:16;;;;;;;14.57;8.73;;;12.30;86.00;;;;;;5052625;28;20033;-64
2021/11/14 01:03:47;;;;;;;13.90;8.77;;;12.30;86.00;;;;;;5054963;28;20032;-64
2021/11/14 01:06:19;;;;;;;15.13;9.18;;;12.30;86.00;;;;;;5049062;28;20032;-64
2021/11/14 01:08:49;;;;;;;15.68;8.88;;;12.20;85.90;;;;;;5038002;28;20104;-64
2021/11/14 01:11:19;;;;;;;14.48;8.65;;;12.20;85.90;;;;;;5048202;28;20473;-64
2021/11/14 01:13:54;;;;;;;14.05;8.80;;;12.20;85.90;;;;;;5035290;28;20025;-64
2021/11/14 01:16:25;;;;;;;16.67;8.73;;;12.20;85.90;;;;;;5037709;28;20037;-64
2021/11/14 01:18:58;;;;;;;15.55;8.45;;;12.20;85.90;;;;;;5036994;28;20037;-64
2021/11/14 01:21:28;;;;;;;13.13;8.60;;;12.20;85.90;;;;;;5043294;28;20032;-64
2021/11/14 01:23:56;;;;;;;12.38;8.98;;;12.20;85.80;;;;;;5046297;28;20036;-64
2021/11/14 01:26:24;;;;;;;15.75;9.15;;;12.20;85.90;;;;;;5036306;28;20503;-64
2021/11/14 01:28:54;;;;;;;19.58;9.10;;;12.20;85.90;;;;;;5050536;28;20029;-64
2021/11/14 01:31:27;;;;;;;16.02;8.68;;;12.20;86.00;;;;;;5037355;28;20029;-64
2021/11/14 01:33:56;;;;;;;16.67;8.90;;;12.10;85.90;;;;;;5036759;28;21235;-64
2021/11/14 01:36:31;;;;;;;11.57;8.05;;;12.10;86.00;;;;;;5040396;28;20054;-64
2021/11/14 01:39:01;;;;;;;19.33;9.23;;;12.10;85.90;;;;;;5032201;28;20029;-64
2021/11/14 01:41:27;;;;;;;14.45;9.45;;;12.10;86.10;;;;;;5047968;28;20082;-64
2021/11/14 01:43:54;;;;;;;17.00;9.75;;;12.10;86.20;;;;;;5033821;28;20538;-64
2021/11/14 01:46:22;;;;;;;15.75;9.52;;;12.10;86.40;;;;;;5037352;28;20014;-64
2021/11/14 01:48:50;;;;;;;18.52;9.88;;;12.10;86.40;;;;;;5028692;28;20041;-64
2021/11/14 01:51:17;;;;;;;16.70;9.15;;;12.10;86.40;;;;;;5035899;28;20030;-64
2021/11/14 01:53:43;;;;;;;19.42;9.52;;;12.10;86.40;;;;;;5038160;28;20092;-64
2021/11/14 01:56:12;;;;;;;15.27;9.38;;;12.10;86.40;;;;;;5023031;28;20040;-64
2021/11/14 01:58:39;;;;;;;19.45;10.20;;;12.00;86.40;;;;;;5043789;28;20126;-64
2021/11/14 02:01:18;;;;;;;17.00;9.98;;;12.10;86.40;;;;;;5043917;28;20021;-64
2021/11/14 02:03:51;;;;;;;19.40;9.88;;;12.10;86.50;;;;;;5036595;28;20025;-64
2021/11/14 02:06:18;;;;;;;15.05;9.30;;;12.10;86.50;;;;;;5041237;28;20033;-64
2021/11/14 02:08:44;;;;;;;16.63;9.45;;;12.10;86.50;;;;;;5043297;28;20037;-64
2021/11/14 02:11:14;;;;;;;15.77;9.32;;;12.00;86.50;;;;;;5018452;28;20033;-64
2021/11/14 02:13:41;;;;;;;16.08;9.32;;;12.10;86.60;;;;;;5042046;28;20562;-64
2021/11/14 02:16:07;;;;;;;15.80;9.40;;;12.10;86.50;;;;;;5035625;28;20037;-64
2021/11/14 02:18:33;;;;;;;19.30;9.82;;;12.00;86.50;;;;;;5040457;28;20471;-64
2021/11/14 02:21:00;;;;;;;16.98;9.73;;;12.10;86.50;;;;;;5044259;28;20091;-64
2021/11/14 02:23:26;;;;;;;17.35;9.98;;;12.10;86.50;;;;;;5034146;28;20025;-64
2021/11/14 02:25:53;;;;;;;14.48;8.88;;;12.10;86.60;;;;;;5034447;28;20032;-64
2021/11/14 02:28:21;;;;;;;13.27;9.38;;;12.00;87.40;;;;;;5045776;28;20048;-64
2021/11/14 02:30:49;;;;;;;16.58;9.30;;;12.00;86.50;;;;;;5040290;28;20423;-64
2021/11/14 02:33:17;;;;;;;14.90;9.00;;;12.00;86.50;;;;;;5047699;28;20329;-64
2021/11/14 02:35:46;;;;;;;18.52;9.82;;;12.00;86.50;;;;;;5045295;28;20119;-64
2021/11/14 02:38:15;;;;;;;16.95;9.93;;;12.00;86.50;;;;;;5052071;28;20053;-65
2021/11/14 02:40:42;;;;;;;15.93;9.55;;;12.00;86.50;;;;;;5046102;28;20104;-64
2021/11/14 02:43:10;;;;;;;14.48;9.10;;;12.00;86.40;;;;;;5040979;28;20433;-64
2021/11/14 02:45:37;;;;;;;13.27;8.25;;;12.00;86.40;;;;;;5052464;28;20079;-64
2021/11/14 02:48:04;;;;;;;12.27;7.70;;;12.00;86.50;;;;;;5048197;28;20059;-64
2021/11/14 02:50:32;;;;;;;15.48;8.27;;;11.90;86.60;;;;;;5061576;28;20052;-64
2021/11/14 02:52:58;;;;;;;14.40;8.65;;;11.90;86.60;;;;;;5051599;28;20044;-64
2021/11/14 02:55:26;;;;;;;13.52;8.88;;;11.90;86.60;;;;;;5050582;28;20020;-64
2021/11/14 02:57:53;;;;;;;16.00;8.25;;;11.90;86.60;;;;;;5045122;28;20059;-64
2021/11/14 03:00:29;;;;;;;15.27;8.02;;;11.90;86.50;;;;;;5052629;28;20552;-64
2021/11/14 03:02:55;;;;;;;12.07;7.65;;;11.90;86.60;;;;;;5049792;28;20078;-64
2021/11/14 03:05:22;;;;;;;13.52;7.72;;;11.90;86.60;;;;;;5033632;28;20028;-64
2021/11/14 03:07:49;;;;;;;14.48;8.75;;;11.90;86.60;;;;;;5046947;28;20036;-64
2021/11/14 03:10:20;;;;;;;13.15;7.93;;;11.90;86.70;;;;;;5050090;28;20491;-64
2021/11/14 03:13:14;;;;;;;14.05;8.38;;;11.90;86.70;;;;;;5050635;28;20029;-64
2021/11/14 03:15:43;;;;;;;15.63;8.63;;;11.90;86.90;;;;;;5038603;28;20184;-64
2021/11/14 03:18:10;;;;;;;13.43;7.90;;;11.90;86.90;;;;;;5050037;28;20025;-64
2021/11/14 03:20:43;;;;;;;16.60;8.07;;;11.90;87.00;;;;;;5044421;28;20727;-64
2021/11/14 03:23:09;;;;;;;14.70;7.93;;;11.90;86.90;;;;;;5046529;28;20021;-64
2021/11/14 03:25:35;;;;;;;16.50;8.13;;;11.90;86.90;;;;;;5063078;28;20384;-64
2021/11/14 03:28:01;;;;;;;15.13;8.15;;;11.90;86.90;;;;;;5037475;28;20052;-64
2021/11/14 03:30:28;;;;;;;10.98;8.00;;;11.90;86.90;;;;;;5046394;28;20032;-64
2021/11/14 03:32:55;;;;;;;12.82;7.63;;;11.90;86.90;;;;;;5057633;28;20017;-64
2021/11/14 03:35:22;;;;;;;17.55;8.27;;;11.90;86.90;;;;;;5044591;28;20029;-64
2021/11/14 03:37:49;;;;;;;14.18;7.78;;;11.90;87.00;;;;;;5047910;28;20017;-64
2021/11/14 03:40:16;;;;;;;15.82;7.68;;;11.80;87.00;;;;;;5042505;28;20491;-64
2021/11/14 03:42:43;;;;;;;10.85;7.18;;;11.90;87.00;;;;;;5034135;28;20026;-64
2021/11/14 03:45:09;;;;;;;14.05;8.00;;;11.90;87.10;;;;;;5035050;28;20037;-64
2021/11/14 03:47:37;;;;;;;14.45;7.43;;;11.90;87.00;;;;;;5033710;28;20048;-64
2021/11/14 03:50:04;;;;;;;11.25;6.75;;;11.90;87.00;;;;;;5044087;28;20052;-64
2021/11/14 03:52:30;;;;;;;14.88;7.85;;;11.90;87.00;;;;;;5048298;28;20029;-64
2021/11/14 03:54:56;;;;;;;12.50;7.40;;;11.90;87.00;;;;;;5031844;28;20037;-64
2021/11/14 03:57:22;;;;;;;11.73;7.40;;;11.90;87.00;;;;;;5050026;28;20111;-64
2021/11/14 03:59:47;;;;;;;14.63;7.60;;;11.90;87.00;;;;;;5045392;28;20017;-64
2021/11/14 04:02:13;;;;;;;12.55;7.35;;;11.90;87.00;;;;;;5060868;28;20025;-64
2021/11/14 04:04:39;;;;;;;11.50;7.47;;;11.90;86.90;;;;;;5052387;28;20019;-64
2021/11/14 04:07:05;;;;;;;12.88;7.57;;;11.80;86.90;;;;;;5063904;28;20086;-64
2021/11/14 04:09:31;;;;;;;13.52;7.10;;;11.90;87.00;;;;;;5042896;28;20029;-64
2021/11/14 04:11:57;;;;;;;14.77;7.32;;;11.80;87.00;;;;;;5048208;28;20111;-64
2021/11/14 04:14:22;;;;;;;12.73;7.75;;;11.80;86.90;;;;;;5035458;28;20040;-64
2021/11/14 04:16:48;;;;;;;16.10;7.57;;;11.80;87.00;;;;;;5048193;28;20560;-64
2021/11/14 04:19:14;;;;;;;11.73;7.15;;;11.80;87.00;;;;;;5049458;28;20025;-64
2021/11/14 04:21:40;;;;;;;13.55;6.90;;;11.80;87.00;;;;;;5047556;28;20384;-64
2021/11/14 04:24:06;;;;;;;12.27;6.70;;;11.80;86.90;;;;;;5042197;28;20017;-64
2021/11/14 04:26:32;;;;;;;14.55;7.07;;;11.80;87.00;;;;;;5042716;28;20086;-64
2021/11/14 04:28:58;;;;;;;11.45;6.35;;;11.80;86.90;;;;;;5047203;28;20508;-64
2021/11/14 04:31:23;;;;;;;10.40;6.22;;;11.80;87.00;;;;;;5051950;28;20056;-64
2021/11/14 04:33:49;;;;;;;12.43;6.40;;;11.70;86.90;;;;;;5053494;28;20115;-64
2021/11/14 04:36:15;;;;;;;13.45;5.90;;;11.70;87.00;;;;;;5049527;28;20033;-64
2021/11/14 04:38:41;;;;;;;9.30;5.68;;;11.70;87.00;;;;;;5034859;28;20083;-64
2021/11/14 04:41:07;;;;;;;10.25;5.53;;;11.70;87.00;;;;;;5046754;28;20018;-64
2021/11/14 04:43:33;;;;;;;10.40;6.25;;;11.70;87.00;;;;;;5045611;28;20107;-64
2021/11/14 04:45:59;;;;;;;11.20;5.90;;;11.70;87.00;;;;;;5049628;28;20028;-64
2021/11/14 04:48:25;;;;;;;12.43;6.10;;;11.60;87.00;;;;;;5051448;28;20581;-64
2021/11/14 04:50:52;;;;;;;9.77;5.90;;;11.60;87.00;;;;;;5043071;28;20036;-64
2021/11/14 04:53:18;;;;;;;9.90;6.00;;;11.60;86.90;;;;;;5054550;28;20025;-64
2021/11/14 04:55:44;;;;;;;9.75;6.05;;;11.60;86.90;;;;;;5060453;28;20182;-64
2021/11/14 04:58:13;;;;;;;10.20;6.05;;;11.60;86.90;;;;;;5049611;28;20031;-64
2021/11/14 05:00:48;;;;;;;11.52;6.60;;;11.60;87.00;;;;;;5059663;28;20108;-64
2021/11/14 05:03:14;;;;;;;12.40;6.20;;;11.60;87.10;;;;;;5049383;28;20083;-64
2021/11/14 05:05:41;;;;;;;14.32;6.68;;;11.60;87.00;;;;;;5050185;28;20079;-64
2021/11/14 05:08:09;;;;;;;11.63;6.40;;;11.50;86.90;;;;;;5058025;28;20102;-64
2021/11/14 05:10:35;;;;;;;11.07;5.90;;;11.50;87.00;;;;;;5050257;28;20051;-64
2021/11/14 05:13:01;;;;;;;12.10;5.85;;;11.50;87.00;;;;;;5044448;28;20052;-64
2021/11/14 05:15:27;;;;;;;11.52;5.93;;;11.50;87.00;;;;;;5050038;28;20049;-64
2021/11/14 05:17:53;;;;;;;12.45;5.97;;;11.50;87.10;;;;;;5048888;28;20061;-64
2021/11/14 05:20:19;;;;;;;9.52;5.82;;;11.50;87.10;;;;;;5050235;28;20032;-64
2021/11/14 05:22:45;;;;;;;12.50;5.80;;;11.50;87.20;;;;;;5050427;28;20094;-64
2021/11/14 05:25:11;;;;;;;10.25;5.53;;;11.50;87.10;;;;;;5058887;28;20479;-64
2021/11/14 05:27:37;;;;;;;11.45;5.57;;;11.50;87.20;;;;;;5048449;28;20086;-64
2021/11/14 05:30:06;;;;;;;8.20;5.05;;;11.50;87.20;;;;;;5051142;28;20057;-64
2021/11/14 05:32:32;;;;;;;10.20;5.47;;;11.50;87.10;;;;;;5077351;28;20021;-64
2021/11/14 05:34:57;;;;;;;8.60;5.35;;;11.40;87.00;;;;;;5052675;28;20041;-64
2021/11/14 05:37:23;;;;;;;10.20;5.53;;;11.50;86.90;;;;;;5047036;28;20418;-64
2021/11/14 05:39:49;;;;;;;9.70;5.40;;;11.50;86.80;;;;;;5048437;28;20033;-64
2021/11/14 05:42:15;;;;;;;7.68;5.00;;;11.40;86.80;;;;;;5029808;28;20052;-64
2021/11/14 05:44:40;;;;;;;9.73;5.45;;;11.50;86.90;;;;;;5048011;28;20110;-64
2021/11/14 05:47:06;;;;;;;9.93;5.20;;;11.40;86.90;;;;;;5033770;28;20041;-64
2021/11/14 05:49:32;;;;;;;10.35;4.93;;;11.40;86.90;;;;;;5036369;28;20040;-64
2021/11/14 05:51:58;;;;;;;10.73;5.00;;;11.40;86.90;;;;;;5049819;28;20037;-64
2021/11/14 05:54:24;;;;;;;8.18;4.72;;;11.50;86.90;;;;;;5043350;28;20088;-64
2021/11/14 05:56:50;;;;;;;7.95;4.63;;;11.50;86.90;;;;;;5051198;28;20029;-64
2021/11/14 05:59:39;;;;;;;8.65;4.50;;;11.50;86.90;;;;;;5048053;28;20056;-64
2021/11/14 06:02:19;;;;;;;9.43;4.70;;;11.50;86.70;;;;;;5051794;28;20052;-64
2021/11/14 06:07:30;;;;;;;8.52;4.63;;;11.50;86.70;;;;;;5050641;28;20091;-64
2021/11/14 06:10:00;;;;;;;10.70;4.22;;;11.50;86.70;;;;;;5038090;28;20033;-64
2021/11/14 06:12:27;;;;;;;8.27;4.70;;;11.50;86.70;;;;;;5044330;28;20032;-64
2021/11/14 06:14:53;;;;;;;11.35;4.03;;;11.50;86.50;;;;;;5045045;28;20502;-64
2021/11/14 06:17:20;;;;;;;10.05;4.40;;;11.50;86.50;;;;;;5036139;28;20026;-64
2021/11/14 06:19:47;;;;;;;7.18;4.40;;;11.50;86.50;;;;;;5033987;28;20583;-64
2021/11/14 06:22:14;;;;;;;8.48;4.05;;;11.50;86.50;;;;;;5053764;28;20021;-64
2021/11/14 06:24:40;;;;;;;8.23;3.65;;;11.50;86.40;;;;;;5044154;28;20048;-64
2021/11/14 06:27:06;;;;;;;9.07;3.88;;;11.50;86.30;;;;;;5049844;28;20044;-64
2021/11/14 06:29:31;;;;;;;7.72;3.78;;;11.50;86.30;;;;;;5057924;28;20391;-64
2021/11/14 06:31:57;;;;;;;9.63;3.47;;;11.60;86.20;;;;;;5056716;28;20037;-64
2021/11/14 06:34:23;;;;;;;8.30;3.90;;;11.50;86.10;;;;;;5052543;28;20491;-64
2021/11/14 06:36:49;;;;;;;7.95;3.30;;;11.50;86.00;;;;;;5049834;28;20075;-64
2021/11/14 06:39:15;;;;;;;8.13;3.42;;;11.50;86.00;;;;;;5043267;28;20171;-64
2021/11/14 06:41:40;;;;;;;7.18;4.00;;;11.50;85.90;;;;;;5057673;28;20070;-64
2021/11/14 06:44:06;;;;;;;8.43;3.75;;;11.50;85.90;;;;;;5047847;28;20457;-64
2021/11/14 06:46:32;;;;;;;6.97;3.28;;;11.50;85.80;;;;;;5043144;28;20049;-64
2021/11/14 06:48:58;;;;;;;6.18;3.72;;;11.50;85.80;;;;;;5054741;28;20086;-64
2021/11/14 06:51:23;;;;;;;7.68;3.50;;;11.50;85.90;;;;;;5046270;28;20504;-64
2021/11/14 06:53:49;;;;;;;8.50;3.60;;;11.50;85.90;;;;;;5053722;28;20025;-64
2021/11/14 06:56:15;;;;;;;7.80;3.63;;;11.50;85.70;;;;;;5051684;28;20040;-64
2021/11/14 06:58:41;;;;;;;5.78;3.78;;;11.50;85.70;;;;;;5033738;28;20128;-64
2021/11/14 07:01:07;;;;;;;10.75;3.53;;;11.50;86.70;;;;;;5044567;28;20105;-64
2021/11/14 07:03:32;;;;;;;6.50;3.42;;;11.50;85.70;;;;;;5039724;28;20029;-64
2021/11/14 07:05:58;;;;;;;11.40;3.30;;;11.50;85.70;;;;;;5037804;28;20960;-64
2021/11/14 07:08:24;;;;;;;7.25;3.10;;;11.50;85.70;;;;;;5049164;28;20046;-64
2021/11/14 07:10:50;;;;;;;9.13;3.10;;;11.50;85.70;;;;;;5059761;28;20471;-64
2021/11/14 07:13:16;;;;;;;6.93;3.13;;;11.50;85.60;;;;;;5045982;28;20032;-64
2021/11/14 07:15:42;;;;;;;9.13;3.80;;;11.50;85.60;;;;;;5049418;28;20025;-63
2021/11/14 07:18:08;;;;;;;8.30;3.22;;;11.50;85.60;;;;;;5049194;28;20022;-64
2021/11/14 07:20:34;;;;;;;8.15;3.08;;;11.50;85.60;;;;;;5046566;28;20017;-64
2021/11/14 07:23:00;;;;;;;6.75;3.10;;;11.50;85.60;;;;;;5036989;28;20022;-64
2021/11/14 07:25:26;;;;;;;7.95;3.22;;;11.50;85.70;;;;;;5035079;28;20052;-64
2021/11/14 07:27:53;;;;;;;6.43;3.17;;;11.50;85.70;;;;;;5033482;28;20032;-64
2021/11/14 07:30:21;;;;;;;7.72;3.40;;;11.50;85.60;;;;;;5063103;28;20431;-64
2021/11/14 07:32:47;;;;;;;5.35;3.03;;;11.50;85.50;;;;;;5035306;28;20021;-64
2021/11/14 07:35:16;;;;;;;7.78;3.10;;;11.50;85.40;;;;;;5046171;28;20030;-64
2021/11/14 07:37:43;;;;;;;8.00;3.25;;;11.50;85.40;;;;;;5042795;28;20025;-64
2021/11/14 07:40:11;;;;;;;6.55;3.00;;;11.50;85.30;;;;;;5045829;28;20045;-64
2021/11/14 07:42:37;;;;;;;6.18;3.17;;;11.50;85.30;;;;;;5043322;28;20068;-64
2021/11/14 07:45:07;;;;;;;7.75;3.30;;;11.60;85.30;;;;;;5041467;28;20372;-64
2021/11/14 07:47:34;;;;;;;9.07;3.20;;;11.60;85.20;;;;;;5046022;28;20044;-64
2021/11/14 07:50:00;;;;;;;5.60;2.97;;;11.60;85.20;;;;;;5059545;28;20439;-64
2021/11/14 07:52:29;;;;;;;7.57;3.17;;;11.60;85.10;;;;;;5055857;28;20025;-64
2021/11/14 07:54:54;;;;;;;5.43;3.20;;;11.60;85.10;;;;;;5034708;28;20484;-64
2021/11/14 07:57:20;;;;;;;7.95;3.05;;;11.70;85.10;;;;;;5034577;28;20063;-64
2021/11/14 07:59:46;;;;;;;7.80;3.03;;;11.70;85.00;;;;;;5046162;28;20032;-64
2021/11/14 08:02:12;;;;;;;7.60;3.08;;;11.70;84.80;;;;;;5041530;28;20529;-64
2021/11/14 08:04:37;;;;;;;5.13;2.88;;;11.80;84.60;;;;;;5054686;28;20021;-64
2021/11/14 08:07:04;;;;;;;7.03;3.20;;;11.80;84.40;;;;;;5052203;28;20033;-64
2021/11/14 08:09:30;;;;;;;7.28;3.08;;;11.80;84.40;;;;;;5042009;28;20500;-64
2021/11/14 08:11:56;;;;;;;8.95;3.08;;;11.80;84.30;;;;;;5045712;28;20017;-64
2021/11/14 08:14:22;;;;;;;7.38;2.88;;;11.80;84.30;;;;;;5046158;28;20065;-64
2021/11/14 08:16:47;;;;;;;7.72;3.28;;;11.80;85.10;;;;;;5032227;28;20128;-64
2021/11/14 08:19:13;;;;;;;8.48;3.10;;;11.80;84.10;;;;;;5035196;28;20028;-63
2021/11/14 08:21:39;;;;;;;4.93;3.03;;;11.90;84.10;;;;;;5038694;28;20051;-63
2021/11/14 08:24:05;;;;;;;6.57;3.38;;;11.90;84.00;;;;;;5042663;28;20029;-63
2021/11/14 08:26:31;;;;;;;10.93;3.20;;;11.90;83.90;;;;;;5034418;28;20025;-64
2021/11/14 08:28:58;;;;;;;8.93;3.25;;;12.00;83.80;;;;;;5044514;28;20484;-63
2021/11/14 08:31:25;;;;;;;8.60;3.00;;;12.00;83.70;;;;;;5065076;28;20028;-64
2021/11/14 08:33:51;;;;;;;14.40;6.32;;;12.10;83.60;;;;;;5050878;28;20041;-63
2021/11/14 08:36:17;;;;;;;6.40;3.30;;;12.10;83.50;;;;;;5044626;28;20022;-63
2021/11/14 08:38:44;;;;;;;7.78;3.88;;;12.20;83.30;;;;;;5037880;28;20021;-63
2021/11/14 08:41:11;;;;;;;12.02;4.25;;;12.20;83.20;;;;;;5033494;28;20040;-61
2021/11/14 08:43:39;;;;;;;6.82;3.40;;;12.30;83.10;;;;;;5042303;28;20089;-66
2021/11/14 08:46:06;;;;;;;11.50;3.40;;;12.30;83.00;;;;;;5047425;28;20025;-66
2021/11/14 08:48:32;;;;;;;9.45;3.63;;;12.40;82.60;;;;;;5042110;28;20106;-66
2021/11/14 08:50:58;;;;;;;11.25;3.90;;;12.40;82.30;;;;;;5044774;28;20402;-66
2021/11/14 08:53:24;;;;;;;6.57;3.33;;;12.40;81.90;;;;;;5048832;28;20029;-64
2021/11/14 08:55:54;;;;;;;8.52;3.47;;;12.50;81.60;;;;;;5034781;28;20028;-64
2021/11/14 08:58:21;;;;;;;8.55;3.65;;;12.60;81.20;;;;;;5032739;28;20036;-64
2021/11/14 09:00:47;;;;;;;8.65;3.45;;;12.70;80.90;;;;;;5026779;28;20400;-63
2021/11/14 09:03:14;;;;;;;8.63;3.35;;;12.80;80.60;;;;;;5042577;28;20048;-63
2021/11/14 09:05:40;;;;;;;9.30;3.55;;;12.90;80.50;;;;;;5036192;28;20539;-63
2021/11/14 09:08:06;;;;;;;6.32;3.28;;;12.90;80.10;;;;;;5050959;28;20175;-63
2021/11/14 09:10:34;;;;;;;9.25;3.85;;;13.00;79.80;;;;;;5032246;28;20043;-63
2021/11/14 09:13:00;;;;;;;10.00;3.50;;;13.00;79.30;;;;;;5042145;28;20037;-63
2021/11/14 09:15:29;;;;;;;10.07;3.53;;;13.10;79.00;;;;;;5040428;28;20388;-63
2021/11/14 09:17:58;;;;;;;6.47;3.60;;;13.20;78.50;;;;;;5035784;28;20108;-63
2021/11/14 09:20:24;;;;;;;12.50;4.35;;;13.30;78.20;;;;;;5049087;28;20032;-63
2021/11/14 09:22:50;;;;;;;7.22;3.20;;;13.30;77.70;;;;;;5032173;28;20100;-63
2021/11/14 09:25:17;;;;;;;6.55;3.00;;;13.40;77.40;;;;;;5036045;28;20048;-63
2021/11/14 09:27:43;;;;;;;8.50;3.47;;;13.50;76.90;;;;;;5035730;28;20069;-63
2021/11/14 09:30:09;;;;;;;8.63;3.33;;;13.60;76.60;;;;;;5042284;28;20021;-64
2021/11/14 09:32:37;;;;;;;7.85;3.17;;;13.70;76.30;;;;;;5050634;28;20048;-64
2021/11/14 09:35:04;;;;;;;6.78;3.20;;;13.80;76.00;;;;;;5044466;28;20024;-64
2021/11/14 09:37:30;;;;;;;8.55;3.42;;;13.90;75.60;;;;;;5027965;28;20039;-64
2021/11/14 09:39:56;;;;;;;8.20;3.28;;;14.00;75.20;;;;;;5059786;28;20021;-64
2021/11/14 09:42:25;;;;;;;7.60;3.63;;;14.00;74.70;;;;;;5048960;28;20514;-64
2021/11/14 09:44:51;;;;;;;7.40;3.10;;;14.00;74.50;;;;;;5050747;28;20427;-64
2021/11/14 09:47:17;;;;;;;6.93;3.08;;;13.90;74.60;;;;;;5049058;28;20049;-64
2021/11/14 09:49:44;;;;;;;8.07;3.10;;;13.90;74.70;;;;;;5055059;28;20036;-64
2021/11/14 09:52:10;;;;;;;11.70;4.07;;;13.90;74.80;;;;;;5031437;28;20036;-65
2021/11/14 09:54:37;;;;;;;25.20;9.18;;;13.90;74.70;;;;;;5042127;28;20410;-65
2021/11/14 09:57:04;;;;;;;27.33;10.55;;;13.90;74.80;;;;;;5051879;28;20053;-65
2021/11/14 09:59:30;;;;;;;13.32;5.78;;;13.90;74.70;;;;;;5044556;28;20055;-65
2021/11/14 10:01:58;;;;;;;7.50;3.00;;;14.10;74.50;;;;;;5051051;28;20480;-65
2021/11/14 10:04:25;;;;;;;6.82;3.20;;;14.50;73.80;;;;;;5050633;28;20029;-65
2021/11/14 10:07:00;;;;;;;10.80;4.90;;;14.90;72.50;;;;;;5047001;28;20033;-65
2021/11/14 10:09:38;;;;;;;12.43;4.13;;;15.10;71.50;;;;;;5047180;28;20079;-66
2021/11/14 10:12:20;;;;;;;11.73;2.78;;;15.30;70.60;;;;;;5049723;28;20515;-66
2021/11/14 10:15:03;;;;;;;8.43;3.00;;;15.70;70.00;;;;;;5043039;28;20029;-65
2021/11/14 10:17:29;;;;;;;5.68;2.58;;;15.90;68.80;;;;;;5045610;28;20823;-66
2021/11/14 10:20:21;;;;;;;6.03;2.63;;;16.00;68.00;;;;;;5052392;28;20021;-66
2021/11/14 10:22:51;;;;;;;7.45;2.40;;;16.10;67.80;;;;;;5054090;28;20032;-66
2021/11/14 10:25:17;;;;;;;6.07;2.75;;;16.00;67.20;;;;;;5048599;28;20028;-66
2021/11/14 10:27:56;;;;;;;6.78;2.90;;;16.10;66.90;;;;;;5037802;28;20511;-65
2021/11/14 10:30:25;;;;;;;7.07;2.40;;;16.10;67.10;;;;;;5040386;28;20488;-65
2021/11/14 10:33:06;;;;;;;6.25;2.17;;;16.20;66.50;;;;;;5045452;28;20037;-66
2021/11/14 10:35:32;;;;;;;7.07;2.45;;;16.20;65.80;;;;;;5041683;28;20504;-65
2021/11/14 10:38:05;;;;;;;6.53;2.20;;;16.10;65.70;;;;;;5047929;28;20044;-66
2021/11/14 10:40:37;;;;;;;7.68;2.22;;;16.10;66.20;;;;;;5050830;28;20044;-66
2021/11/14 10:43:11;;;;;;;4.57;2.00;;;16.10;66.10;;;;;;5045813;28;20430;-67
2021/11/14 10:45:40;;;;;;;5.18;2.08;;;16.00;65.10;;;;;;5039387;28;20443;-66
2021/11/14 10:48:12;;;;;;;9.63;4.75;;;16.00;64.10;;;;;;5042222;28;20045;-66
2021/11/14 10:50:45;;;;;;;9.10;5.43;;;15.80;65.00;;;;;;5063372;28;20095;-66
2021/11/14 10:53:15;;;;;;;8.63;2.83;;;15.70;65.60;;;;;;5048975;28;20079;-66
2021/11/14 10:55:47;;;;;;;5.10;3.22;;;15.70;65.90;;;;;;5032958;28;20036;-66
2021/11/14 10:58:14;;;;;;;6.70;2.60;;;15.70;66.20;;;;;;5052243;28;20036;-66
2021/11/14 11:00:46;;;;;;;5.20;1.90;;;15.70;65.70;;;;;;5055976;28;20025;-66
2021/11/14 11:03:12;;;;;;;6.28;1.95;;;15.80;65.50;;;;;;5043508;28;20063;-66
2021/11/14 11:05:39;;;;;;;9.18;2.13;;;15.90;65.00;;;;;;5034133;28;20597;-66
2021/11/14 11:08:17;;;;;;;6.32;3.10;;;15.90;64.70;;;;;;5039879;28;20396;-66
2021/11/14 11:10:50;;;;;;;9.40;3.22;;;15.90;64.70;;;;;;5043608;28;20107;-66
2021/11/14 11:13:31;;;;;;;4.95;2.03;;;15.90;64.60;;;;;;5045053;28;20013;-66
2021/11/14 11:16:10;;;;;;;6.15;2.00;;;15.90;64.10;;;;;;5042915;28;20028;-66
2021/11/14 11:18:38;;;;;;;6.90;1.98;;;15.90;64.10;;;;;;5049917;28;20025;-66
2021/11/14 11:21:06;;;;;;;11.70;2.92;;;15.90;63.80;;;;;;5054823;28;20040;-66
2021/11/14 11:23:40;;;;;;;5.55;3.30;;;16.00;64.00;;;;;;5051027;28;20523;-65
2021/11/14 11:26:07;;;;;;;8.80;3.90;;;16.00;64.00;;;;;;5039466;28;20029;-64
2021/11/14 11:28:45;;;;;;;8.23;3.22;;;16.00;63.10;;;;;;5035018;28;20037;-65
2021/11/14 11:31:17;;;;;;;6.53;2.72;;;16.00;63.40;;;;;;5045935;28;20389;-65
2021/11/14 11:33:46;;;;;;;8.43;4.22;;;16.00;63.50;;;;;;5052848;28;20056;-66
2021/11/14 11:36:13;;;;;;;11.75;9.07;;;16.20;63.30;;;;;;5038322;28;20075;-65
2021/11/14 11:38:42;;;;;;;8.52;5.68;;;16.20;62.60;;;;;;5042752;28;20078;-65
2021/11/14 11:41:09;;;;;;;9.27;6.43;;;16.30;62.70;;;;;;5043232;28;20021;-65
2021/11/14 11:43:36;;;;;;;6.15;2.90;;;16.40;62.50;;;;;;5043243;28;20498;-65
2021/11/14 11:46:02;;;;;;;6.75;2.50;;;16.50;62.40;;;;;;5035123;28;20431;-65
2021/11/14 11:48:41;;;;;;;5.18;2.00;;;16.70;62.30;;;;;;5036595;28;20053;-65
2021/11/14 11:51:13;;;;;;;3.97;1.67;;;16.90;61.80;;;;;;5040006;28;20541;-66
2021/11/14 11:53:40;;;;;;;22.17;13.82;;;17.00;61.00;;;;;;5052426;28;21653;-65
2021/11/14 11:56:07;;;;;;;38.30;30.83;;;17.10;60.40;;;;;;5052815;28;20029;-65
2021/11/14 11:58:49;;;;;;;8.40;4.07;;;17.00;60.20;;;;;;5059784;28;20048;-65
2021/11/14 12:01:25;;;;;;;10.27;6.82;;;17.00;59.90;;;;;;5060606;28;20554;-65
2021/11/14 12:03:53;;;;;;;8.05;5.32;;;16.90;59.30;;;;;;5050480;28;20078;-66
2021/11/14 12:06:29;;;;;;;7.28;4.10;;;16.90;59.20;;;;;;5058396;28;20020;-65
2021/11/14 12:08:57;;;;;;;5.47;2.88;;;16.80;59.90;;;;;;5043363;28;20491;-65
2021/11/14 12:11:26;;;;;;;7.00;4.30;;;16.70;60.30;;;;;;5052667;28;20380;-66
2021/11/14 12:13:52;;;;;;;7.90;5.13;;;16.70;60.70;;;;;;5047366;28;20474;-66
2021/11/14 12:16:31;;;;;;;8.35;6.13;;;16.80;60.60;;;;;;5045403;28;20120;-66
2021/11/14 12:19:01;;;;;;;6.88;3.80;;;16.80;60.90;;;;;;5050429;28;20043;-66
2021/11/14 12:21:30;;;;;;;4.47;1.77;;;16.80;61.00;;;;;;5039329;28;20038;-66
2021/11/14 12:24:06;;;;;;;5.90;2.80;;;16.90;61.80;;;;;;5041227;28;20112;-66
2021/11/14 12:26:35;;;;;;;6.90;4.80;;;17.20;60.10;;;;;;5049574;28;20067;-66
2021/11/14 12:29:06;;;;;;;3.78;1.67;;;17.20;59.10;;;;;;5054035;28;20923;-66
2021/11/14 12:31:46;;;;;;;10.93;8.80;;;17.10;58.80;;;;;;5048611;28;20036;-65
2021/11/14 12:34:21;;;;;;;7.72;5.43;;;17.10;59.10;;;;;;5067443;28;20067;-65
2021/11/14 12:36:47;;;;;;;5.38;3.03;;;17.10;58.80;;;;;;5049891;28;20025;-65
2021/11/14 12:39:24;;;;;;;5.13;1.70;;;17.10;58.90;;;;;;5047799;28;20539;-66
2021/11/14 12:41:58;;;;;;;6.07;3.13;;;17.00;59.70;;;;;;5058755;28;20024;-65
2021/11/14 12:44:32;;;;;;;4.75;1.90;;;16.90;60.10;;;;;;5052471;28;20028;-66
2021/11/14 12:46:59;;;;;;;5.78;2.33;;;16.80;60.50;;;;;;5050205;28;21190;-65